PRGER SBMT-SBJF
Flight info
| Callsign | PRGER |
|---|---|
| Flight time | N/A |
| Altitude | 11000 |
| Route | SCP DCT TAU DCT PAI DCT EDNAM |
| Aircraft | C172/L-SFG/C |
Departure
| Time | N/A |
|---|---|
| Airport | Campo de Marte Airport (SBMT) |
Arrival
| Time | 2026-05-03 20:51 |
|---|---|
| Airport | Francisco de Assis Airport (SBJF) |
| Time | Latitude | Longitude | Altitude | Speed | Heading |
|---|---|---|---|---|---|
| 2026-05-03 20:15 | -22.58720 | -44.26121 | 11211 ft | 128 kts | 70° |
| 2026-05-03 20:15 | -22.58433 | -44.25205 | 11212 ft | 128 kts | 70° |
| 2026-05-03 20:15 | -22.58144 | -44.24291 | 11210 ft | 128 kts | 71° |
| 2026-05-03 20:15 | -22.57857 | -44.23379 | 11214 ft | 128 kts | 70° |
| 2026-05-03 20:16 | -22.57569 | -44.22470 | 11216 ft | 127 kts | 70° |
| 2026-05-03 20:16 | -22.57285 | -44.21566 | 11212 ft | 127 kts | 71° |
| 2026-05-03 20:16 | -22.56999 | -44.20660 | 11214 ft | 127 kts | 71° |
| 2026-05-03 20:16 | -22.56712 | -44.19751 | 11214 ft | 128 kts | 71° |
| 2026-05-03 20:17 | -22.56427 | -44.18845 | 11217 ft | 127 kts | 71° |
| 2026-05-03 20:17 | -22.56141 | -44.17940 | 11211 ft | 127 kts | 71° |
| 2026-05-03 20:17 | -22.55855 | -44.17033 | 11216 ft | 128 kts | 71° |
| 2026-05-03 20:17 | -22.55567 | -44.16123 | 11212 ft | 128 kts | 70° |
| 2026-05-03 20:18 | -22.55284 | -44.15227 | 11212 ft | 128 kts | 70° |
| 2026-05-03 20:18 | -22.54996 | -44.14313 | 11212 ft | 128 kts | 70° |
| 2026-05-03 20:18 | -22.54708 | -44.13404 | 11215 ft | 128 kts | 70° |
| 2026-05-03 20:18 | -22.54420 | -44.12492 | 11215 ft | 128 kts | 71° |
| 2026-05-03 20:19 | -22.54133 | -44.11581 | 11212 ft | 127 kts | 70° |
| 2026-05-03 20:19 | -22.53846 | -44.10677 | 11214 ft | 127 kts | 71° |
| 2026-05-03 20:19 | -22.53561 | -44.09775 | 11213 ft | 126 kts | 70° |
| 2026-05-03 20:19 | -22.53276 | -44.08875 | 11213 ft | 126 kts | 70° |
| 2026-05-03 20:20 | -22.52993 | -44.07979 | 11213 ft | 126 kts | 70° |
| 2026-05-03 20:20 | -22.52708 | -44.07080 | 11212 ft | 126 kts | 70° |
| 2026-05-03 20:20 | -22.52424 | -44.06184 | 11210 ft | 126 kts | 70° |
| 2026-05-03 20:20 | -22.52144 | -44.05298 | 11207 ft | 126 kts | 70° |
| 2026-05-03 20:21 | -22.51857 | -44.04391 | 11206 ft | 126 kts | 70° |
| 2026-05-03 20:21 | -22.51573 | -44.03495 | 11208 ft | 126 kts | 70° |
| 2026-05-03 20:21 | -22.51294 | -44.02611 | 11212 ft | 126 kts | 70° |
| 2026-05-03 20:21 | -22.51009 | -44.01715 | 11208 ft | 126 kts | 70° |
| 2026-05-03 20:22 | -22.50720 | -44.00820 | 11207 ft | 126 kts | 66° |
| 2026-05-03 20:22 | -22.50331 | -43.99975 | 11205 ft | 125 kts | 61° |
| 2026-05-03 20:22 | -22.49931 | -43.99139 | 11207 ft | 125 kts | 60° |
| 2026-05-03 20:22 | -22.49532 | -43.98299 | 11206 ft | 125 kts | 61° |
| 2026-05-03 20:23 | -22.49132 | -43.97460 | 11208 ft | 126 kts | 61° |
| 2026-05-03 20:23 | -22.48734 | -43.96620 | 11204 ft | 126 kts | 61° |
| 2026-05-03 20:23 | -22.48334 | -43.95778 | 11203 ft | 125 kts | 61° |
| 2026-05-03 20:23 | -22.47936 | -43.94939 | 11208 ft | 125 kts | 61° |
| 2026-05-03 20:24 | -22.47538 | -43.94100 | 11205 ft | 126 kts | 61° |
| 2026-05-03 20:24 | -22.47144 | -43.93273 | 11202 ft | 125 kts | 61° |
| 2026-05-03 20:24 | -22.46746 | -43.92432 | 11204 ft | 126 kts | 61° |
| 2026-05-03 20:24 | -22.46343 | -43.91585 | 11205 ft | 127 kts | 61° |
| 2026-05-03 20:25 | -22.45940 | -43.90737 | 11205 ft | 127 kts | 61° |
| 2026-05-03 20:25 | -22.45532 | -43.89884 | 11208 ft | 127 kts | 61° |
| 2026-05-03 20:25 | -22.45125 | -43.89032 | 11206 ft | 127 kts | 61° |
| 2026-05-03 20:25 | -22.44724 | -43.88184 | 11206 ft | 126 kts | 61° |
| 2026-05-03 20:26 | -22.44318 | -43.87343 | 11207 ft | 126 kts | 61° |
| 2026-05-03 20:26 | -22.43917 | -43.86499 | 11204 ft | 126 kts | 61° |
| 2026-05-03 20:26 | -22.43516 | -43.85656 | 11204 ft | 126 kts | 61° |
| 2026-05-03 20:26 | -22.43111 | -43.84809 | 11201 ft | 127 kts | 61° |
| 2026-05-03 20:27 | -22.42710 | -43.83967 | 11200 ft | 127 kts | 60° |
| 2026-05-03 20:27 | -22.42304 | -43.83117 | 11203 ft | 127 kts | 61° |
| 2026-05-03 20:27 | -22.41903 | -43.82273 | 11201 ft | 126 kts | 62° |
| 2026-05-03 20:27 | -22.41501 | -43.81434 | 11199 ft | 126 kts | 61° |
| 2026-05-03 20:28 | -22.41096 | -43.80593 | 11196 ft | 125 kts | 61° |
| 2026-05-03 20:28 | -22.40698 | -43.79757 | 11196 ft | 125 kts | 60° |
| 2026-05-03 20:28 | -22.40298 | -43.78919 | 11198 ft | 126 kts | 60° |
| 2026-05-03 20:28 | -22.39899 | -43.78078 | 11196 ft | 125 kts | 61° |
| 2026-05-03 20:29 | -22.39509 | -43.77257 | 11194 ft | 124 kts | 60° |
| 2026-05-03 20:29 | -22.39058 | -43.76473 | 11191 ft | 121 kts | 36° |
| 2026-05-03 20:29 | -22.38403 | -43.75906 | 11200 ft | 122 kts | 38° |
| 2026-05-03 20:29 | -22.37744 | -43.75311 | 11201 ft | 123 kts | 34° |
| 2026-05-03 20:30 | -22.37085 | -43.74734 | 11141 ft | 127 kts | 35° |
| 2026-05-03 20:30 | -22.36363 | -43.74107 | 10927 ft | 137 kts | 35° |
| 2026-05-03 20:30 | -22.35624 | -43.73464 | 10715 ft | 136 kts | 37° |
| 2026-05-03 20:30 | -22.34886 | -43.72821 | 10483 ft | 135 kts | 36° |
| 2026-05-03 20:31 | -22.34153 | -43.72183 | 10260 ft | 136 kts | 35° |
| 2026-05-03 20:31 | -22.33436 | -43.71556 | 10015 ft | 129 kts | 36° |
| 2026-05-03 20:31 | -22.32746 | -43.70949 | 9750 ft | 126 kts | 36° |
| 2026-05-03 20:31 | -22.32064 | -43.70354 | 9494 ft | 126 kts | 36° |
| 2026-05-03 20:32 | -22.31379 | -43.69766 | 9237 ft | 124 kts | 36° |
| 2026-05-03 20:32 | -22.30701 | -43.69200 | 8977 ft | 122 kts | 36° |
| 2026-05-03 20:32 | -22.30022 | -43.68644 | 8734 ft | 122 kts | 36° |
| 2026-05-03 20:32 | -22.29337 | -43.68095 | 8485 ft | 123 kts | 36° |
| 2026-05-03 20:33 | -22.28654 | -43.67555 | 8261 ft | 121 kts | 36° |
| 2026-05-03 20:33 | -22.27976 | -43.67031 | 8133 ft | 120 kts | 35° |
| 2026-05-03 20:33 | -22.27297 | -43.66512 | 8011 ft | 120 kts | 35° |
| 2026-05-03 20:33 | -22.26616 | -43.65995 | 7888 ft | 120 kts | 35° |
| 2026-05-03 20:34 | -22.25940 | -43.65488 | 7766 ft | 118 kts | 35° |
| 2026-05-03 20:34 | -22.25262 | -43.64985 | 7645 ft | 118 kts | 35° |
| 2026-05-03 20:34 | -22.24580 | -43.64483 | 7526 ft | 119 kts | 35° |
| 2026-05-03 20:34 | -22.23890 | -43.63982 | 7408 ft | 120 kts | 35° |
| 2026-05-03 20:35 | -22.23197 | -43.63482 | 7293 ft | 120 kts | 35° |
| 2026-05-03 20:35 | -22.22502 | -43.62982 | 7170 ft | 120 kts | 36° |
| 2026-05-03 20:35 | -22.21808 | -43.62483 | 7048 ft | 119 kts | 36° |
| 2026-05-03 20:35 | -22.21127 | -43.61998 | 6932 ft | 118 kts | 35° |
| 2026-05-03 20:36 | -22.20431 | -43.61508 | 6813 ft | 118 kts | 35° |
| 2026-05-03 20:36 | -22.19752 | -43.61034 | 6691 ft | 118 kts | 36° |
| 2026-05-03 20:36 | -22.19060 | -43.60558 | 6577 ft | 118 kts | 35° |
| 2026-05-03 20:36 | -22.18364 | -43.60086 | 6454 ft | 118 kts | 34° |
| 2026-05-03 20:37 | -22.17666 | -43.59616 | 6329 ft | 118 kts | 35° |
| 2026-05-03 20:37 | -22.16958 | -43.59140 | 6205 ft | 121 kts | 35° |
| 2026-05-03 20:37 | -22.16246 | -43.58664 | 6072 ft | 120 kts | 36° |
| 2026-05-03 20:37 | -22.15535 | -43.58192 | 5953 ft | 120 kts | 34° |
| 2026-05-03 20:38 | -22.14819 | -43.57719 | 5833 ft | 121 kts | 35° |
| 2026-05-03 20:38 | -22.14092 | -43.57244 | 5701 ft | 122 kts | 36° |
| 2026-05-03 20:38 | -22.13363 | -43.56779 | 5585 ft | 122 kts | 35° |
| 2026-05-03 20:38 | -22.12630 | -43.56314 | 5460 ft | 123 kts | 34° |
| 2026-05-03 20:39 | -22.11892 | -43.55848 | 5335 ft | 123 kts | 35° |
| 2026-05-03 20:39 | -22.11151 | -43.55389 | 5217 ft | 123 kts | 35° |
| 2026-05-03 20:39 | -22.10433 | -43.54946 | 5189 ft | 117 kts | 35° |
| 2026-05-03 20:39 | -22.09742 | -43.54532 | 5176 ft | 111 kts | 34° |
| 2026-05-03 20:40 | -22.09078 | -43.54131 | 5180 ft | 109 kts | 34° |
| 2026-05-03 20:40 | -22.08408 | -43.53734 | 5180 ft | 110 kts | 34° |
| 2026-05-03 20:40 | -22.07731 | -43.53342 | 5181 ft | 110 kts | 35° |
| 2026-05-03 20:40 | -22.07052 | -43.52952 | 5183 ft | 112 kts | 34° |
| 2026-05-03 20:41 | -22.06367 | -43.52539 | 5180 ft | 112 kts | 35° |
| 2026-05-03 20:41 | -22.05683 | -43.52128 | 5184 ft | 113 kts | 35° |
| 2026-05-03 20:41 | -22.05003 | -43.51720 | 5185 ft | 113 kts | 34° |
| 2026-05-03 20:41 | -22.04318 | -43.51310 | 5180 ft | 111 kts | 34° |
| 2026-05-03 20:42 | -22.03643 | -43.50903 | 5179 ft | 111 kts | 35° |
| 2026-05-03 20:42 | -22.02969 | -43.50496 | 5181 ft | 111 kts | 34° |
| 2026-05-03 20:42 | -22.02300 | -43.50088 | 5179 ft | 110 kts | 35° |
| 2026-05-03 20:42 | -22.01629 | -43.49684 | 5173 ft | 111 kts | 35° |
| 2026-05-03 20:43 | -22.00962 | -43.49285 | 5175 ft | 110 kts | 34° |
| 2026-05-03 20:43 | -22.00297 | -43.48889 | 5176 ft | 108 kts | 34° |
| 2026-05-03 20:43 | -21.99632 | -43.48493 | 5176 ft | 110 kts | 34° |
| 2026-05-03 20:43 | -21.99001 | -43.48134 | 5163 ft | 99 kts | 35° |
| 2026-05-03 20:44 | -21.98348 | -43.47761 | 5036 ft | 111 kts | 34° |
| 2026-05-03 20:44 | -21.97675 | -43.47372 | 5009 ft | 106 kts | 34° |
| 2026-05-03 20:44 | -21.97019 | -43.46980 | 5000 ft | 109 kts | 35° |
| 2026-05-03 20:44 | -21.96356 | -43.46574 | 5003 ft | 109 kts | 33° |
| 2026-05-03 20:45 | -21.95699 | -43.46178 | 4993 ft | 107 kts | 34° |
| 2026-05-03 20:45 | -21.95045 | -43.45794 | 5005 ft | 109 kts | 35° |
| 2026-05-03 20:45 | -21.94373 | -43.45402 | 5006 ft | 112 kts | 35° |
| 2026-05-03 20:45 | -21.93687 | -43.44993 | 5000 ft | 112 kts | 34° |
| 2026-05-03 20:46 | -21.93013 | -43.44584 | 5000 ft | 112 kts | 34° |
| 2026-05-03 20:46 | -21.92333 | -43.44168 | 4998 ft | 113 kts | 35° |
| 2026-05-03 20:46 | -21.91649 | -43.43750 | 5004 ft | 114 kts | 35° |
| 2026-05-03 20:46 | -21.90963 | -43.43332 | 4995 ft | 111 kts | 35° |
| 2026-05-03 20:47 | -21.90300 | -43.42938 | 4993 ft | 107 kts | 34° |
| 2026-05-03 20:47 | -21.89646 | -43.42542 | 4950 ft | 112 kts | 36° |
| 2026-05-03 20:47 | -21.88937 | -43.42106 | 4836 ft | 120 kts | 35° |
| 2026-05-03 20:47 | -21.88210 | -43.41646 | 4716 ft | 122 kts | 34° |
| 2026-05-03 20:48 | -21.87484 | -43.41177 | 4599 ft | 121 kts | 35° |
| 2026-05-03 20:48 | -21.86779 | -43.40731 | 4472 ft | 115 kts | 36° |
| 2026-05-03 20:48 | -21.86094 | -43.40315 | 4345 ft | 114 kts | 36° |
| 2026-05-03 20:48 | -21.85399 | -43.39896 | 4216 ft | 114 kts | 35° |
| 2026-05-03 20:49 | -21.84697 | -43.39495 | 4037 ft | 117 kts | 30° |
| 2026-05-03 20:49 | -21.83933 | -43.39151 | 3754 ft | 121 kts | 21° |
| 2026-05-03 20:49 | -21.83146 | -43.38981 | 3629 ft | 113 kts | 8° |
| 2026-05-03 20:49 | -21.82389 | -43.38958 | 3510 ft | 102 kts | 0° |
| 2026-05-03 20:50 | -21.81694 | -43.38907 | 3426 ft | 100 kts | 9° |
| 2026-05-03 20:50 | -21.81028 | -43.38806 | 3258 ft | 96 kts | 10° |
| 2026-05-03 20:50 | -21.80372 | -43.38727 | 3129 ft | 95 kts | 1° |
| 2026-05-03 20:50 | -21.79701 | -43.38655 | 3018 ft | 96 kts | 6° |
| 2026-05-03 20:51 | -21.79070 | -43.38603 | 2961 ft | 75 kts | 1° |
| 2026-05-03 20:51 | -21.78797 | -43.38574 | 2961 ft | 10 kts | 15° |
| 2026-05-03 20:51 | -21.78736 | -43.38566 | 2960 ft | 8 kts | 357° |
| 2026-05-03 20:51 | -21.78702 | -43.38572 | 2955 ft | 5 kts | 342° |
| 2026-05-03 20:52 | -21.78685 | -43.38563 | 2959 ft | 4 kts | 104° |
| 2026-05-03 20:52 | -21.78728 | -43.38569 | 2959 ft | 9 kts | 190° |
| 2026-05-03 20:52 | -21.78799 | -43.38575 | 2961 ft | 10 kts | 185° |
| 2026-05-03 20:52 | -21.78865 | -43.38580 | 2953 ft | 9 kts | 186° |
| 2026-05-03 20:53 | -21.78924 | -43.38589 | 2962 ft | 8 kts | 188° |
| 2026-05-03 20:53 | -21.78979 | -43.38595 | 2960 ft | 8 kts | 185° |
| 2026-05-03 20:53 | -21.79038 | -43.38601 | 2956 ft | 9 kts | 185° |
| 2026-05-03 20:53 | -21.79102 | -43.38607 | 2965 ft | 9 kts | 186° |
| 2026-05-03 20:54 | -21.79167 | -43.38614 | 2966 ft | 9 kts | 186° |
| 2026-05-03 20:54 | -21.79254 | -43.38590 | 2959 ft | 8 kts | 97° |
| 2026-05-03 20:54 | -21.79257 | -43.38537 | 2966 ft | 7 kts | 85° |
| 2026-05-03 20:55 | -21.79238 | -43.38506 | 2965 ft | 3 kts | 59° |
| 2026-05-03 20:55 | -21.79237 | -43.38492 | 2965 ft | 0 kts | 129° |
| 2026-05-03 20:55 | -21.79239 | -43.38491 | 2967 ft | 1 kts | 140° |
| 2026-05-03 20:55 | -21.79245 | -43.38489 | 2967 ft | 1 kts | 213° |
| 2026-05-03 20:56 | -21.79248 | -43.38498 | 2950 ft | 0 kts | 269° |